createdAt,value
2018-12-10T00:01:30.735Z,70.00
2018-12-10T00:04:04.685Z,70.10
2018-12-10T00:06:47.776Z,70.20
2018-12-10T00:09:19.815Z,70.00
2018-12-10T00:12:01.390Z,70.20
2018-12-10T00:14:33.389Z,70.00
2018-12-10T00:17:14.470Z,70.10
2018-12-10T00:19:46.047Z,70.10
2018-12-10T00:22:27.117Z,70.00
2018-12-10T00:24:59.078Z,70.00
2018-12-10T00:27:46.605Z,70.00
2018-12-10T00:30:18.284Z,69.90
2018-12-10T00:32:59.973Z,69.90
2018-12-10T00:35:31.591Z,70.00
2018-12-10T00:38:19.154Z,69.70
2018-12-10T00:40:50.754Z,69.70
2018-12-10T00:43:22.331Z,69.80
2018-12-10T00:46:03.856Z,69.00
2018-12-10T00:48:35.296Z,69.60
2018-12-10T00:51:16.343Z,69.50
2018-12-10T00:53:47.793Z,69.60
2018-12-10T00:56:32.527Z,69.50
2018-12-10T00:59:04.500Z,69.70
2018-12-10T01:01:49.110Z,69.50
2018-12-10T01:04:20.756Z,69.40
2018-12-10T01:07:01.838Z,69.60
2018-12-10T01:09:33.935Z,69.60
2018-12-10T01:12:15.038Z,69.80
2018-12-10T01:14:46.453Z,69.80
2018-12-10T01:17:28.133Z,69.90
2018-12-10T01:19:59.906Z,70.10
2018-12-10T01:22:44.467Z,70.10
2018-12-10T01:25:16.257Z,70.10
2018-12-10T01:27:57.282Z,70.00
2018-12-10T01:30:29.166Z,70.20
2018-12-10T01:33:13.774Z,70.10
2018-12-10T01:35:45.224Z,70.20
2018-12-10T01:38:29.838Z,70.30
2018-12-10T01:41:01.490Z,70.20
2018-12-10T01:43:45.986Z,70.20
2018-12-10T01:46:17.339Z,70.30
2018-12-10T01:49:01.966Z,70.20
2018-12-10T01:51:33.476Z,70.20
2018-12-10T01:54:30.520Z,70.10
2018-12-10T01:57:02.153Z,70.20
2018-12-10T01:59:43.737Z,70.10
2018-12-10T02:02:15.207Z,70.20
2018-12-10T02:04:59.738Z,70.20
2018-12-10T02:07:31.498Z,70.20
2018-12-10T02:10:12.606Z,70.10
2018-12-10T02:12:44.007Z,70.20
2018-12-10T02:15:27.082Z,70.20
2018-12-10T02:17:59.641Z,70.20
2018-12-10T02:20:45.218Z,70.20
2018-12-10T02:23:16.812Z,70.20
2018-12-10T02:25:57.899Z,70.20
2018-12-10T02:28:34.282Z,70.30
2018-12-10T02:31:21.908Z,70.20
2018-12-10T02:33:53.630Z,70.20
2018-12-10T02:36:34.702Z,70.20
2018-12-10T02:39:07.390Z,70.20
2018-12-10T02:41:48.439Z,70.20
2018-12-10T02:44:19.936Z,70.30
2018-12-10T02:47:04.668Z,70.40
2018-12-10T02:49:36.253Z,70.40
2018-12-10T02:52:20.863Z,70.30
2018-12-10T02:54:52.459Z,70.40
2018-12-10T02:57:33.910Z,70.50
2018-12-10T03:00:05.819Z,70.50
2018-12-10T03:02:48.972Z,70.50
2018-12-10T03:05:20.614Z,70.70
2018-12-10T03:08:01.591Z,70.70
2018-12-10T03:10:33.058Z,71.10
2018-12-10T03:13:14.293Z,70.80
2018-12-10T03:15:45.814Z,70.90
2018-12-10T03:18:30.420Z,71.00
2018-12-10T03:21:01.969Z,70.90
2018-12-10T03:23:46.453Z,71.10
2018-12-10T03:26:17.845Z,71.10
2018-12-10T03:29:02.426Z,71.10
2018-12-10T03:31:33.887Z,71.10
2018-12-10T03:34:18.432Z,71.00
2018-12-10T03:36:50.880Z,71.20
2018-12-10T03:39:31.891Z,71.00
2018-12-10T03:42:03.645Z,71.00
2018-12-10T03:44:48.182Z,71.10
2018-12-10T03:47:19.568Z,71.20
2018-12-10T03:50:05.246Z,71.50
2018-12-10T03:52:36.933Z,71.30
2018-12-10T03:55:21.420Z,71.70
2018-12-10T03:57:52.843Z,71.50
2018-12-10T04:00:37.422Z,71.60
2018-12-10T04:03:09.973Z,71.60
2018-12-10T04:05:50.981Z,71.70
2018-12-10T04:08:22.345Z,71.60
2018-12-10T04:11:03.885Z,71.90
2018-12-10T04:13:35.288Z,71.90
2018-12-10T04:16:20.847Z,71.90
2018-12-10T04:18:52.256Z,72.30
2018-12-10T04:21:33.550Z,71.70
2018-12-10T04:24:04.946Z,71.70
2018-12-10T04:26:45.926Z,71.70
2018-12-10T04:29:17.387Z,71.60
2018-12-10T04:32:01.889Z,71.90
2018-12-10T04:34:33.349Z,71.60
2018-12-10T04:37:14.978Z,71.30
2018-12-10T04:39:46.496Z,71.80
2018-12-10T04:42:27.604Z,71.40
2018-12-10T04:44:58.976Z,71.90
2018-12-10T04:47:39.965Z,72.30
2018-12-10T04:50:11.451Z,71.30
2018-12-10T04:52:52.450Z,71.90
2018-12-10T04:55:23.834Z,72.10
2018-12-10T04:58:04.805Z,71.90
2018-12-10T05:00:36.264Z,72.00
2018-12-10T05:03:22.370Z,72.40
2018-12-10T05:05:55.003Z,72.10
2018-12-10T05:08:39.615Z,71.80
2018-12-10T05:11:11.036Z,71.70
2018-12-10T05:13:53.116Z,71.60
2018-12-10T05:16:24.550Z,71.50
2018-12-10T05:19:06.214Z,71.40
2018-12-10T05:21:37.653Z,71.40
2018-12-10T05:24:27.095Z,71.30
2018-12-10T05:26:58.575Z,71.10
2018-12-10T05:29:46.169Z,71.10
2018-12-10T05:32:17.582Z,71.20
2018-12-10T05:35:05.566Z,71.10
2018-12-10T05:37:37.309Z,71.10
2018-12-10T05:40:18.362Z,70.90
2018-12-10T05:42:49.920Z,71.20
2018-12-10T05:45:34.463Z,71.00
2018-12-10T05:48:05.860Z,71.00
2018-12-10T05:50:46.873Z,71.10
2018-12-10T05:53:18.813Z,71.10
2018-12-10T05:56:03.375Z,71.10
2018-12-10T05:58:35.321Z,71.00
2018-12-10T06:01:16.686Z,71.10
2018-12-10T06:03:48.272Z,71.10
2018-12-10T06:06:29.523Z,71.10
2018-12-10T06:09:01.030Z,71.00
2018-12-10T06:24:59.550Z,72.10
2018-12-10T06:27:31.013Z,71.80
2018-12-10T06:30:12.321Z,71.80
2018-12-10T06:32:43.724Z,71.60
2018-12-10T06:35:28.294Z,71.50
2018-12-10T06:37:59.848Z,71.60
2018-12-10T06:54:03.868Z,71.10
2018-12-10T06:56:35.310Z,71.30
2018-12-10T06:59:16.602Z,71.10
2018-12-10T07:01:48.136Z,71.10
2018-12-10T07:04:29.174Z,71.00
2018-12-10T07:07:00.646Z,71.00
2018-12-10T07:09:45.204Z,70.90
2018-12-10T07:12:17.538Z,70.80
2018-12-10T07:15:02.310Z,70.80
2018-12-10T07:17:33.831Z,70.70
2018-12-10T07:20:15.684Z,71.00
2018-12-10T07:22:47.165Z,70.90
2018-12-10T07:25:28.364Z,70.90
2018-12-10T07:28:00.013Z,70.80
2018-12-10T07:30:41.494Z,70.80
2018-12-10T07:33:13.442Z,70.90
2018-12-10T07:35:54.630Z,70.80
2018-12-10T07:38:26.288Z,70.70
2018-12-10T07:41:07.477Z,70.80
2018-12-10T07:43:39.089Z,70.60
2018-12-10T07:46:20.205Z,70.60
2018-12-10T07:48:51.810Z,70.70
2018-12-10T07:51:32.808Z,70.60
2018-12-10T07:54:04.379Z,70.50
2018-12-10T07:56:45.525Z,70.50
2018-12-10T07:59:17.061Z,71.20
2018-12-10T08:01:58.301Z,70.50
2018-12-10T08:04:29.839Z,70.60
2018-12-10T08:07:10.871Z,70.60
2018-12-10T08:09:42.357Z,70.60
2018-12-10T08:12:23.453Z,69.80
2018-12-10T08:14:55.379Z,70.70
2018-12-10T08:17:40.073Z,70.60
2018-12-10T08:20:11.537Z,70.70
2018-12-10T08:22:52.680Z,70.70
2018-12-10T08:25:24.146Z,70.70
2018-12-10T08:28:05.292Z,70.50
2018-12-10T08:30:37.555Z,70.40
2018-12-10T08:33:19.488Z,70.40
2018-12-10T08:35:57.898Z,70.50
2018-12-10T08:51:52.589Z,70.70
2018-12-10T08:54:24.069Z,69.80
2018-12-10T08:57:08.817Z,69.50
2018-12-10T08:59:40.617Z,69.40
2018-12-10T09:02:12.068Z,69.20
2018-12-10T09:04:56.919Z,69.20
2018-12-10T09:07:28.278Z,69.40
2018-12-10T09:10:09.901Z,69.20
2018-12-10T09:12:47.019Z,69.40
2018-12-10T09:15:31.521Z,69.60
2018-12-10T09:18:03.126Z,69.70
2018-12-10T09:20:44.270Z,69.50
2018-12-10T09:23:15.936Z,68.70
2018-12-10T09:26:00.639Z,69.00
2018-12-10T09:28:32.713Z,69.00
2018-12-10T09:31:17.448Z,68.70
2018-12-10T09:33:50.127Z,68.20
2018-12-10T09:49:41.777Z,68.10
2018-12-10T09:52:13.420Z,68.40
2018-12-10T09:55:01.225Z,68.70
2018-12-10T09:57:33.764Z,68.60
2018-12-10T10:00:14.922Z,68.60
2018-12-10T10:02:46.525Z,69.00
2018-12-10T10:05:39.870Z,69.00
2018-12-10T10:08:11.563Z,68.50
2018-12-10T10:10:56.144Z,68.80
2018-12-10T10:13:27.858Z,68.60
2018-12-10T10:16:12.563Z,68.20
2018-12-10T10:18:44.408Z,68.10
2018-12-10T10:21:29.172Z,68.20
2018-12-10T10:24:00.803Z,68.10
2018-12-10T10:39:48.923Z,67.30
2018-12-10T10:42:20.366Z,66.50
2018-12-10T10:45:02.084Z,67.40
2018-12-10T10:47:33.630Z,67.40
2018-12-10T10:50:14.687Z,67.50
2018-12-10T10:52:46.060Z,67.40
2018-12-10T10:55:17.595Z,67.40
2018-12-10T10:58:02.272Z,67.10
2018-12-10T11:00:39.044Z,66.50
2018-12-10T11:03:31.233Z,67.20
2018-12-10T11:06:04.928Z,67.20
2018-12-10T11:08:46.404Z,67.30
2018-12-10T11:11:20.074Z,67.00
2018-12-10T11:14:01.158Z,67.00
2018-12-10T11:16:34.920Z,66.10
2018-12-10T11:19:16.161Z,66.80
2018-12-10T11:21:49.675Z,66.80
2018-12-10T11:24:37.263Z,66.80
2018-12-10T11:27:10.681Z,65.50
2018-12-10T11:29:58.263Z,67.00
2018-12-10T11:32:31.605Z,66.90
2018-12-10T11:35:03.380Z,66.60
2018-12-10T11:51:03.951Z,64.70
2018-12-10T11:53:35.487Z,65.20
2018-12-10T11:56:06.969Z,64.80
2018-12-10T11:58:51.658Z,65.00
2018-12-10T12:01:23.103Z,65.50
2018-12-10T12:04:07.677Z,65.50
2018-12-10T12:06:41.178Z,65.50
2018-12-10T12:09:22.190Z,64.90
2018-12-10T12:11:53.767Z,65.50
2018-12-10T12:14:34.753Z,65.40
2018-12-10T12:17:06.307Z,65.00
2018-12-10T12:19:50.831Z,65.40
2018-12-10T12:22:22.416Z,64.70
2018-12-10T12:25:07.930Z,65.50
2018-12-10T12:27:39.674Z,64.70
2018-12-10T12:30:21.280Z,65.20
2018-12-10T12:32:52.789Z,64.90
2018-12-10T12:35:37.415Z,65.60
2018-12-10T12:38:09.943Z,65.20
2018-12-10T12:40:56.885Z,64.80
2018-12-10T12:43:28.472Z,65.00
2018-12-10T12:46:13.086Z,66.10
2018-12-10T12:48:44.824Z,65.50
2018-12-10T12:51:26.184Z,65.50
2018-12-10T12:53:58.485Z,65.20
2018-12-10T12:56:39.632Z,65.00
2018-12-10T12:59:11.340Z,65.00
2018-12-10T13:15:01.426Z,65.20
2018-12-10T13:17:33.151Z,65.40
2018-12-10T13:20:27.923Z,65.20
2018-12-10T13:22:59.415Z,65.30
2018-12-10T13:25:46.964Z,65.30
2018-12-10T13:28:18.436Z,65.80
2018-12-10T13:30:59.497Z,66.20
2018-12-10T13:33:31.026Z,66.10
2018-12-10T13:36:12.108Z,65.30
2018-12-10T13:38:43.524Z,65.60
2018-12-10T13:41:28.058Z,65.20
2018-12-10T13:43:59.578Z,65.30
2018-12-10T13:46:50.190Z,64.90
2018-12-10T13:49:21.776Z,64.80
2018-12-10T13:52:08.994Z,65.10
2018-12-10T13:54:37.056Z,64.40
2018-12-10T13:57:21.660Z,65.10
2018-12-10T13:59:53.347Z,64.80
2018-12-10T14:02:35.012Z,64.80
2018-12-10T14:05:14.862Z,64.90
2018-12-10T14:07:55.950Z,64.50
2018-12-10T14:10:29.094Z,63.90
2018-12-10T14:13:19.801Z,64.80
2018-12-10T14:15:51.226Z,65.20
2018-12-10T14:18:32.533Z,65.10
2018-12-10T14:21:06.128Z,65.60
2018-12-10T14:23:51.153Z,65.50
2018-12-10T14:26:22.628Z,65.60
2018-12-10T14:29:03.880Z,65.60
2018-12-10T14:31:35.498Z,65.50
2018-12-10T14:34:26.835Z,65.30
2018-12-10T14:36:58.427Z,65.70
2018-12-10T14:39:43.465Z,65.60
2018-12-10T14:42:25.588Z,65.80
2018-12-10T14:45:11.338Z,65.80
2018-12-10T14:47:43.219Z,65.80
2018-12-10T14:50:27.909Z,65.80
2018-12-10T14:52:59.450Z,65.80
2018-12-10T14:55:46.967Z,66.10
2018-12-10T14:58:18.804Z,66.40
2018-12-10T15:01:05.818Z,66.50
2018-12-10T15:03:37.532Z,66.50
2018-12-10T15:06:19.218Z,66.60
2018-12-10T15:08:51.031Z,66.90
2018-12-10T15:11:22.919Z,66.70
2018-12-10T15:14:07.655Z,66.60
2018-12-10T15:16:39.302Z,66.70
2018-12-10T15:19:27.063Z,66.30
2018-12-10T15:21:58.625Z,66.60
2018-12-10T15:24:46.300Z,66.80
2018-12-10T15:27:17.985Z,66.80
2018-12-10T15:30:10.913Z,66.70
2018-12-10T15:32:42.517Z,66.70
2018-12-10T15:35:24.484Z,66.60
2018-12-10T15:37:56.390Z,66.50
2018-12-10T15:40:28.623Z,66.50
2018-12-10T15:43:19.506Z,66.70
2018-12-10T15:45:51.167Z,66.80
2018-12-10T15:48:34.973Z,66.60
2018-12-10T15:51:06.614Z,66.70
2018-12-10T15:53:58.123Z,66.50
2018-12-10T15:56:30.517Z,66.80
2018-12-10T15:59:03.458Z,66.90
2018-12-10T16:01:46.099Z,67.00
2018-12-10T16:04:17.655Z,67.00
2018-12-10T16:07:11.726Z,67.00
2018-12-10T16:09:43.744Z,67.00
2018-12-10T16:12:15.756Z,67.10
2018-12-10T16:15:08.237Z,67.50
2018-12-10T16:17:39.657Z,67.30
2018-12-10T16:20:33.276Z,67.70
2018-12-10T16:23:05.205Z,68.00
2018-12-10T16:25:46.567Z,68.40
2018-12-10T16:28:18.428Z,68.00
2018-12-10T16:31:09.193Z,68.10
2018-12-10T16:33:40.639Z,68.40
2018-12-10T16:36:22.686Z,68.60
2018-12-10T16:38:54.335Z,68.90
2018-12-10T16:41:26.013Z,69.20
2018-12-10T16:44:17.700Z,69.00
2018-12-10T16:46:49.339Z,69.40
2018-12-10T16:49:31.248Z,69.00
2018-12-10T16:52:03.104Z,69.40
2018-12-10T16:54:47.724Z,69.30
2018-12-10T16:57:19.899Z,69.60
2018-12-10T17:00:08.314Z,69.70
2018-12-10T17:02:40.780Z,69.40
2018-12-10T17:05:26.154Z,69.20
2018-12-10T17:07:57.599Z,69.50
2018-12-10T17:10:39.442Z,70.00
2018-12-10T17:13:11.074Z,69.70
2018-12-10T17:15:55.858Z,69.60
2018-12-10T17:18:27.491Z,69.90
2018-12-10T17:21:08.860Z,69.60
2018-12-10T17:23:40.479Z,69.80
2018-12-10T17:26:12.539Z,69.70
2018-12-10T17:28:44.292Z,70.60
2018-12-10T17:31:16.585Z,69.70
2018-12-10T17:33:48.137Z,69.80
2018-12-10T17:36:19.751Z,70.70
2018-12-10T17:39:09.400Z,69.30
2018-12-10T17:41:40.952Z,69.70
2018-12-10T17:44:22.051Z,69.70
2018-12-10T17:46:53.577Z,69.60
2018-12-10T17:49:35.193Z,69.80
2018-12-10T17:52:06.870Z,69.60
2018-12-10T17:54:48.134Z,70.30
2018-12-10T17:57:19.833Z,69.40
2018-12-10T18:00:00.937Z,70.00
2018-12-10T18:02:32.937Z,70.00
2018-12-10T18:05:04.605Z,70.30
2018-12-10T18:07:49.328Z,70.30
2018-12-10T18:10:20.944Z,70.80
2018-12-10T18:13:02.528Z,70.60
2018-12-10T18:15:33.987Z,71.00
2018-12-10T18:18:15.209Z,71.00
2018-12-10T18:20:46.727Z,71.50
2018-12-10T18:36:31.991Z,70.40
2018-12-10T18:39:04.797Z,70.80
2018-12-10T18:41:45.890Z,70.50
2018-12-10T18:44:17.726Z,70.70
2018-12-10T18:47:11.307Z,71.10
2018-12-10T18:49:42.860Z,71.00
2018-12-10T18:52:23.981Z,70.80
2018-12-10T18:54:55.370Z,71.00
2018-12-10T18:57:40.315Z,71.50
2018-12-10T19:00:14.492Z,72.10
2018-12-10T19:02:59.044Z,71.50
2018-12-10T19:05:31.725Z,73.00
2018-12-10T19:08:16.860Z,71.70
2018-12-10T19:10:48.452Z,71.10
2018-12-10T19:13:29.719Z,71.30
2018-12-10T19:16:01.705Z,71.30
2018-12-10T19:18:42.818Z,71.60
2018-12-10T19:21:14.378Z,71.50
2018-12-10T19:23:58.958Z,71.90
2018-12-10T19:26:30.405Z,71.60
2018-12-10T19:29:11.464Z,72.20
2018-12-10T19:31:43.061Z,71.70
2018-12-10T19:34:26.805Z,71.60
2018-12-10T19:36:58.251Z,72.00
2018-12-10T19:39:42.765Z,71.80
2018-12-10T19:42:14.422Z,71.30
2018-12-10T19:44:59.221Z,71.40
2018-12-10T19:47:30.765Z,71.60
2018-12-10T19:50:12.359Z,71.50
2018-12-10T19:52:43.851Z,71.70
2018-12-10T19:55:25.199Z,71.70
2018-12-10T19:57:56.970Z,71.70
2018-12-10T20:00:41.934Z,71.80
2018-12-10T20:03:13.555Z,72.00
2018-12-10T20:05:59.731Z,71.70
2018-12-10T20:08:33.267Z,71.50
2018-12-10T20:11:14.316Z,71.60
2018-12-10T20:13:45.733Z,71.60
2018-12-10T20:16:26.902Z,71.40
2018-12-10T20:18:58.375Z,71.70
2018-12-10T20:21:43.053Z,71.40
2018-12-10T20:24:14.542Z,71.60
2018-12-10T20:26:58.986Z,71.60
2018-12-10T20:29:30.487Z,72.70
2018-12-10T20:32:11.533Z,71.70
2018-12-10T20:34:43.286Z,71.50
2018-12-10T20:37:28.018Z,71.70
2018-12-10T20:39:59.683Z,71.10
2018-12-10T20:42:40.900Z,71.30
2018-12-10T20:45:12.556Z,71.00
2018-12-10T20:48:06.094Z,71.40
2018-12-10T20:50:37.646Z,71.40
2018-12-10T20:53:09.082Z,71.40
2018-12-10T20:55:40.583Z,71.60
2018-12-10T20:58:21.609Z,71.30
2018-12-10T21:00:53.293Z,71.40
2018-12-10T21:03:34.551Z,71.30
2018-12-10T21:06:11.200Z,71.20
2018-12-10T21:09:01.943Z,70.90
2018-12-10T21:11:36.892Z,71.80
2018-12-10T21:14:21.579Z,71.60
2018-12-10T21:16:53.114Z,72.00
2018-12-10T21:19:34.554Z,72.30
2018-12-10T21:22:06.126Z,72.60
2018-12-10T21:24:53.444Z,71.80
2018-12-10T21:27:24.877Z,72.00
2018-12-10T21:30:07.280Z,71.80
2018-12-10T21:32:38.787Z,72.00
2018-12-10T21:35:19.748Z,71.70
2018-12-10T21:37:51.254Z,71.80
2018-12-10T21:40:33.223Z,71.90
2018-12-10T21:43:04.843Z,71.80
2018-12-10T21:46:02.647Z,71.50
2018-12-10T21:48:34.383Z,71.50
2018-12-10T22:04:22.020Z,71.80
2018-12-10T22:06:53.804Z,71.50
2018-12-10T22:09:34.870Z,71.50
2018-12-10T22:12:06.365Z,71.40
2018-12-10T22:14:56.938Z,71.50
2018-12-10T22:17:28.788Z,71.70
2018-12-10T22:20:09.821Z,71.70
2018-12-10T22:22:43.643Z,71.30
2018-12-10T22:25:34.424Z,71.50
2018-12-10T22:28:05.854Z,71.40
2018-12-10T22:30:59.930Z,71.30
2018-12-10T22:33:31.621Z,71.50
2018-12-10T22:36:12.769Z,71.50
2018-12-10T22:38:44.321Z,71.40
2018-12-10T22:41:28.833Z,71.40
2018-12-10T22:44:00.478Z,71.20
2018-12-10T22:46:51.019Z,71.10
2018-12-10T22:49:22.472Z,71.30
2018-12-10T22:52:10.170Z,71.10
2018-12-10T22:54:41.556Z,71.20
2018-12-10T22:57:26.085Z,71.30
2018-12-10T22:59:57.630Z,71.20
2018-12-10T23:15:42.788Z,70.90
2018-12-10T23:18:14.487Z,71.30
2018-12-10T23:20:59.431Z,71.20
2018-12-10T23:23:30.914Z,71.30
2018-12-10T23:26:02.385Z,71.20
2018-12-10T23:28:49.952Z,71.20
2018-12-10T23:31:21.601Z,71.10
2018-12-10T23:34:03.648Z,71.10
2018-12-10T23:36:35.215Z,71.30
2018-12-10T23:39:19.819Z,71.10
2018-12-10T23:41:51.296Z,71.20
2018-12-10T23:44:37.723Z,71.20
2018-12-10T23:47:09.222Z,71.10
2018-12-10T23:49:50.265Z,71.20
2018-12-10T23:52:21.821Z,71.20
2018-12-10T23:55:02.946Z,72.20
2018-12-10T23:57:34.356Z,71.30
